sensor_id;sensor_type;location;lat;lon;timestamp;P1;durP1;ratioP1;P2;durP2;ratioP2
48034;SDS011;33812;46.480;6.834;2023-02-22T00:00:29;9.02;;;2.53;;
48034;SDS011;33812;46.480;6.834;2023-02-22T00:04:41;7.35;;;2.30;;
48034;SDS011;33812;46.480;6.834;2023-02-22T00:08:45;7.55;;;2.25;;
48034;SDS011;33812;46.480;6.834;2023-02-22T00:12:48;9.82;;;2.58;;
48034;SDS011;33812;46.480;6.834;2023-02-22T00:16:53;14.82;;;3.30;;
48034;SDS011;33812;46.480;6.834;2023-02-22T00:20:59;10.43;;;2.53;;
48034;SDS011;33812;46.480;6.834;2023-02-22T00:25:01;12.80;;;2.80;;
48034;SDS011;33812;46.480;6.834;2023-02-22T00:29:03;7.13;;;2.13;;
48034;SDS011;33812;46.480;6.834;2023-02-22T00:33:06;7.80;;;2.28;;
48034;SDS011;33812;46.480;6.834;2023-02-22T00:37:08;18.08;;;3.92;;
48034;SDS011;33812;46.480;6.834;2023-02-22T00:41:11;8.02;;;2.25;;
48034;SDS011;33812;46.480;6.834;2023-02-22T00:45:13;6.20;;;1.95;;
48034;SDS011;33812;46.480;6.834;2023-02-22T00:49:18;7.88;;;2.17;;
48034;SDS011;33812;46.480;6.834;2023-02-22T00:53:21;7.90;;;2.40;;
48034;SDS011;33812;46.480;6.834;2023-02-22T00:57:23;5.60;;;2.05;;
48034;SDS011;33812;46.480;6.834;2023-02-22T01:01:26;14.00;;;2.78;;
48034;SDS011;33812;46.480;6.834;2023-02-22T01:05:29;7.40;;;2.05;;
48034;SDS011;33812;46.480;6.834;2023-02-22T01:09:32;7.85;;;2.17;;
48034;SDS011;33812;46.480;6.834;2023-02-22T01:13:34;8.20;;;2.20;;
48034;SDS011;33812;46.480;6.834;2023-02-22T01:17:36;7.32;;;2.42;;
48034;SDS011;33812;46.480;6.834;2023-02-22T01:21:40;10.00;;;2.45;;
48034;SDS011;33812;46.480;6.834;2023-02-22T01:25:42;10.60;;;2.70;;
48034;SDS011;33812;46.480;6.834;2023-02-22T01:29:44;8.73;;;2.45;;
48034;SDS011;33812;46.480;6.834;2023-02-22T01:33:50;10.75;;;2.47;;
48034;SDS011;33812;46.480;6.834;2023-02-22T01:37:54;4.95;;;1.67;;
48034;SDS011;33812;46.480;6.834;2023-02-22T01:41:56;7.27;;;2.10;;
48034;SDS011;33812;46.480;6.834;2023-02-22T01:45:59;8.68;;;2.40;;
48034;SDS011;33812;46.480;6.834;2023-02-22T01:50:03;6.90;;;1.98;;
48034;SDS011;33812;46.480;6.834;2023-02-22T01:54:08;8.73;;;2.30;;
48034;SDS011;33812;46.480;6.834;2023-02-22T01:58:15;10.82;;;2.47;;
48034;SDS011;33812;46.480;6.834;2023-02-22T02:02:19;13.02;;;2.83;;
48034;SDS011;33812;46.480;6.834;2023-02-22T02:06:24;6.28;;;1.85;;
48034;SDS011;33812;46.480;6.834;2023-02-22T02:10:29;6.28;;;1.75;;
48034;SDS011;33812;46.480;6.834;2023-02-22T02:14:33;11.82;;;2.83;;
48034;SDS011;33812;46.480;6.834;2023-02-22T02:18:39;9.18;;;1.77;;
48034;SDS011;33812;46.480;6.834;2023-02-22T02:22:44;22.00;;;2.72;;
48034;SDS011;33812;46.480;6.834;2023-02-22T02:35:53;13.55;;;3.20;;
48034;SDS011;33812;46.480;6.834;2023-02-22T02:40:05;6.60;;;2.05;;
48034;SDS011;33812;46.480;6.834;2023-02-22T02:44:13;6.93;;;2.03;;
48034;SDS011;33812;46.480;6.834;2023-02-22T02:48:24;6.30;;;2.20;;
48034;SDS011;33812;46.480;6.834;2023-02-22T02:52:32;11.07;;;2.75;;
48034;SDS011;33812;46.480;6.834;2023-02-22T02:56:35;8.77;;;2.25;;
48034;SDS011;33812;46.480;6.834;2023-02-22T03:00:38;12.18;;;2.40;;
48034;SDS011;33812;46.480;6.834;2023-02-22T03:04:47;8.95;;;2.22;;
48034;SDS011;33812;46.480;6.834;2023-02-22T03:09:02;7.88;;;2.20;;
48034;SDS011;33812;46.480;6.834;2023-02-22T03:13:14;8.68;;;2.30;;
48034;SDS011;33812;46.480;6.834;2023-02-22T03:17:26;11.75;;;2.63;;
48034;SDS011;33812;46.480;6.834;2023-02-22T03:21:43;13.32;;;2.67;;
48034;SDS011;33812;46.480;6.834;2023-02-22T03:25:52;9.00;;;2.22;;
48034;SDS011;33812;46.480;6.834;2023-02-22T03:29:59;12.32;;;2.30;;
48034;SDS011;33812;46.480;6.834;2023-02-22T03:34:06;9.02;;;2.38;;
48034;SDS011;33812;46.480;6.834;2023-02-22T03:38:11;6.15;;;2.20;;
48034;SDS011;33812;46.480;6.834;2023-02-22T03:42:20;8.20;;;2.42;;
48034;SDS011;33812;46.480;6.834;2023-02-22T03:46:26;7.75;;;1.80;;
48034;SDS011;33812;46.480;6.834;2023-02-22T03:50:31;8.97;;;2.23;;
48034;SDS011;33812;46.480;6.834;2023-02-22T03:54:37;7.25;;;2.30;;
48034;SDS011;33812;46.480;6.834;2023-02-22T03:58:41;9.05;;;1.90;;
48034;SDS011;33812;46.480;6.834;2023-02-22T04:02:47;5.68;;;1.80;;
48034;SDS011;33812;46.480;6.834;2023-02-22T04:06:51;8.27;;;2.30;;
48034;SDS011;33812;46.480;6.834;2023-02-22T04:10:53;12.18;;;3.05;;
48034;SDS011;33812;46.480;6.834;2023-02-22T04:14:57;6.25;;;1.80;;
48034;SDS011;33812;46.480;6.834;2023-02-22T04:18:58;7.82;;;2.50;;
48034;SDS011;33812;46.480;6.834;2023-02-22T04:23:00;7.70;;;2.22;;
48034;SDS011;33812;46.480;6.834;2023-02-22T04:27:02;9.98;;;2.67;;
48034;SDS011;33812;46.480;6.834;2023-02-22T04:31:05;4.35;;;1.67;;
48034;SDS011;33812;46.480;6.834;2023-02-22T04:35:07;6.47;;;2.13;;
48034;SDS011;33812;46.480;6.834;2023-02-22T04:39:09;5.20;;;2.03;;
48034;SDS011;33812;46.480;6.834;2023-02-22T04:43:11;7.93;;;2.30;;
48034;SDS011;33812;46.480;6.834;2023-02-22T04:47:14;5.30;;;1.70;;
48034;SDS011;33812;46.480;6.834;2023-02-22T04:51:16;2.80;;;1.30;;
48034;SDS011;33812;46.480;6.834;2023-02-22T04:55:19;5.32;;;1.80;;
48034;SDS011;33812;46.480;6.834;2023-02-22T04:59:21;4.28;;;1.58;;
48034;SDS011;33812;46.480;6.834;2023-02-22T05:03:24;7.00;;;1.83;;
48034;SDS011;33812;46.480;6.834;2023-02-22T05:07:26;5.70;;;1.48;;
48034;SDS011;33812;46.480;6.834;2023-02-22T05:11:28;7.90;;;2.28;;
48034;SDS011;33812;46.480;6.834;2023-02-22T05:15:30;7.50;;;2.15;;
48034;SDS011;33812;46.480;6.834;2023-02-22T05:19:33;7.18;;;1.75;;
48034;SDS011;33812;46.480;6.834;2023-02-22T05:23:35;6.60;;;1.75;;
48034;SDS011;33812;46.480;6.834;2023-02-22T05:27:37;4.63;;;1.70;;
48034;SDS011;33812;46.480;6.834;2023-02-22T05:31:38;3.53;;;1.73;;
48034;SDS011;33812;46.480;6.834;2023-02-22T05:35:42;6.22;;;1.98;;
48034;SDS011;33812;46.480;6.834;2023-02-22T05:39:45;12.48;;;3.25;;
48034;SDS011;33812;46.480;6.834;2023-02-22T05:43:47;23.27;;;4.25;;
48034;SDS011;33812;46.480;6.834;2023-02-22T05:47:49;20.05;;;3.88;;
48034;SDS011;33812;46.480;6.834;2023-02-22T05:51:53;13.80;;;3.28;;
48034;SDS011;33812;46.480;6.834;2023-02-22T05:55:58;9.63;;;2.35;;
48034;SDS011;33812;46.480;6.834;2023-02-22T06:00:00;12.13;;;3.20;;
48034;SDS011;33812;46.480;6.834;2023-02-22T06:04:02;9.20;;;2.08;;
48034;SDS011;33812;46.480;6.834;2023-02-22T06:08:06;19.73;;;7.45;;
48034;SDS011;33812;46.480;6.834;2023-02-22T06:12:08;15.70;;;7.57;;
48034;SDS011;33812;46.480;6.834;2023-02-22T06:16:14;16.80;;;6.00;;
48034;SDS011;33812;46.480;6.834;2023-02-22T06:24:36;19.75;;;6.15;;
48034;SDS011;33812;46.480;6.834;2023-02-22T06:28:41;14.52;;;5.53;;
48034;SDS011;33812;46.480;6.834;2023-02-22T06:32:45;16.23;;;4.77;;
48034;SDS011;33812;46.480;6.834;2023-02-22T06:36:47;19.90;;;5.38;;
48034;SDS011;33812;46.480;6.834;2023-02-22T06:40:52;16.15;;;5.75;;
48034;SDS011;33812;46.480;6.834;2023-02-22T06:49:08;16.42;;;4.80;;
48034;SDS011;33812;46.480;6.834;2023-02-22T06:53:10;15.10;;;4.68;;
48034;SDS011;33812;46.480;6.834;2023-02-22T06:57:13;13.80;;;3.95;;
48034;SDS011;33812;46.480;6.834;2023-02-22T07:01:17;30.70;;;4.30;;
48034;SDS011;33812;46.480;6.834;2023-02-22T07:05:21;15.60;;;4.28;;
48034;SDS011;33812;46.480;6.834;2023-02-22T07:09:26;13.50;;;4.05;;
48034;SDS011;33812;46.480;6.834;2023-02-22T07:13:30;17.02;;;3.80;;
48034;SDS011;33812;46.480;6.834;2023-02-22T07:17:48;25.75;;;3.95;;
48034;SDS011;33812;46.480;6.834;2023-02-22T07:21:57;26.50;;;4.60;;
48034;SDS011;33812;46.480;6.834;2023-02-22T07:26:05;11.77;;;3.40;;
48034;SDS011;33812;46.480;6.834;2023-02-22T07:30:09;14.57;;;3.88;;
48034;SDS011;33812;46.480;6.834;2023-02-22T07:34:18;20.90;;;4.00;;
48034;SDS011;33812;46.480;6.834;2023-02-22T07:38:26;19.92;;;3.90;;
48034;SDS011;33812;46.480;6.834;2023-02-22T07:42:29;10.35;;;3.20;;
48034;SDS011;33812;46.480;6.834;2023-02-22T07:46:34;11.30;;;3.40;;
48034;SDS011;33812;46.480;6.834;2023-02-22T07:50:38;13.67;;;3.37;;
48034;SDS011;33812;46.480;6.834;2023-02-22T07:54:44;12.77;;;4.25;;
48034;SDS011;33812;46.480;6.834;2023-02-22T07:58:47;6.82;;;3.40;;
48034;SDS011;33812;46.480;6.834;2023-02-22T08:02:51;13.25;;;3.03;;
48034;SDS011;33812;46.480;6.834;2023-02-22T08:06:53;9.60;;;3.40;;
48034;SDS011;33812;46.480;6.834;2023-02-22T08:10:55;11.60;;;3.45;;
48034;SDS011;33812;46.480;6.834;2023-02-22T08:14:58;11.70;;;3.40;;
48034;SDS011;33812;46.480;6.834;2023-02-22T08:19:02;9.57;;;3.72;;
48034;SDS011;33812;46.480;6.834;2023-02-22T08:23:05;9.82;;;2.97;;
48034;SDS011;33812;46.480;6.834;2023-02-22T08:27:09;10.52;;;3.33;;
48034;SDS011;33812;46.480;6.834;2023-02-22T08:31:12;6.05;;;3.50;;
48034;SDS011;33812;46.480;6.834;2023-02-22T08:35:24;11.07;;;2.70;;
48034;SDS011;33812;46.480;6.834;2023-02-22T08:39:29;4.28;;;2.70;;
48034;SDS011;33812;46.480;6.834;2023-02-22T08:51:50;14.23;;;3.85;;
48034;SDS011;33812;46.480;6.834;2023-02-22T08:55:52;9.50;;;3.67;;
48034;SDS011;33812;46.480;6.834;2023-02-22T08:59:53;9.43;;;3.80;;
48034;SDS011;33812;46.480;6.834;2023-02-22T09:03:56;12.02;;;3.63;;
48034;SDS011;33812;46.480;6.834;2023-02-22T09:08:05;7.72;;;3.22;;
48034;SDS011;33812;46.480;6.834;2023-02-22T09:12:09;9.18;;;3.67;;
48034;SDS011;33812;46.480;6.834;2023-02-22T09:16:19;12.30;;;4.03;;
48034;SDS011;33812;46.480;6.834;2023-02-22T09:20:21;7.40;;;3.58;;
48034;SDS011;33812;46.480;6.834;2023-02-22T09:24:27;7.68;;;2.95;;
48034;SDS011;33812;46.480;6.834;2023-02-22T09:28:31;6.20;;;3.20;;
48034;SDS011;33812;46.480;6.834;2023-02-22T09:32:38;5.63;;;3.20;;
48034;SDS011;33812;46.480;6.834;2023-02-22T09:36:40;10.02;;;3.70;;
48034;SDS011;33812;46.480;6.834;2023-02-22T09:40:46;10.20;;;3.35;;
48034;SDS011;33812;46.480;6.834;2023-02-22T09:44:50;8.13;;;3.22;;
48034;SDS011;33812;46.480;6.834;2023-02-22T09:49:04;11.43;;;4.10;;
48034;SDS011;33812;46.480;6.834;2023-02-22T09:53:20;7.72;;;2.85;;
48034;SDS011;33812;46.480;6.834;2023-02-22T09:57:31;9.07;;;3.80;;
48034;SDS011;33812;46.480;6.834;2023-02-22T10:01:36;8.65;;;3.22;;
48034;SDS011;33812;46.480;6.834;2023-02-22T10:05:46;6.38;;;2.97;;
48034;SDS011;33812;46.480;6.834;2023-02-22T10:09:55;15.35;;;3.47;;
48034;SDS011;33812;46.480;6.834;2023-02-22T10:14:14;8.88;;;3.28;;
48034;SDS011;33812;46.480;6.834;2023-02-22T10:18:33;7.43;;;2.97;;
48034;SDS011;33812;46.480;6.834;2023-02-22T10:22:51;8.18;;;3.20;;
48034;SDS011;33812;46.480;6.834;2023-02-22T10:27:01;10.48;;;3.63;;
48034;SDS011;33812;46.480;6.834;2023-02-22T10:35:12;7.57;;;2.88;;
48034;SDS011;33812;46.480;6.834;2023-02-22T10:39:20;5.05;;;2.67;;
48034;SDS011;33812;46.480;6.834;2023-02-22T10:51:38;7.32;;;3.20;;
48034;SDS011;33812;46.480;6.834;2023-02-22T11:00:14;6.72;;;2.53;;
48034;SDS011;33812;46.480;6.834;2023-02-22T11:04:42;6.13;;;2.60;;
48034;SDS011;33812;46.480;6.834;2023-02-22T11:08:46;7.72;;;3.53;;
48034;SDS011;33812;46.480;6.834;2023-02-22T11:12:51;5.40;;;2.65;;
48034;SDS011;33812;46.480;6.834;2023-02-22T11:16:53;5.63;;;2.78;;
48034;SDS011;33812;46.480;6.834;2023-02-22T11:21:04;8.10;;;3.00;;
48034;SDS011;33812;46.480;6.834;2023-02-22T11:25:16;11.23;;;3.15;;
48034;SDS011;33812;46.480;6.834;2023-02-22T11:29:31;6.75;;;3.28;;
48034;SDS011;33812;46.480;6.834;2023-02-22T11:38:13;8.18;;;3.78;;
48034;SDS011;33812;46.480;6.834;2023-02-22T11:42:20;8.02;;;3.13;;
48034;SDS011;33812;46.480;6.834;2023-02-22T11:46:24;6.28;;;2.60;;
48034;SDS011;33812;46.480;6.834;2023-02-22T11:50:30;8.98;;;2.83;;
48034;SDS011;33812;46.480;6.834;2023-02-22T11:54:41;5.32;;;2.70;;
48034;SDS011;33812;46.480;6.834;2023-02-22T11:58:59;6.75;;;3.38;;
48034;SDS011;33812;46.480;6.834;2023-02-22T12:03:19;8.88;;;2.85;;
48034;SDS011;33812;46.480;6.834;2023-02-22T12:07:31;6.55;;;2.53;;
48034;SDS011;33812;46.480;6.834;2023-02-22T12:11:46;4.25;;;2.55;;
48034;SDS011;33812;46.480;6.834;2023-02-22T12:20:13;6.53;;;3.10;;
48034;SDS011;33812;46.480;6.834;2023-02-22T12:24:22;7.78;;;3.20;;
48034;SDS011;33812;46.480;6.834;2023-02-22T12:28:35;6.88;;;3.08;;
48034;SDS011;33812;46.480;6.834;2023-02-22T12:32:44;5.22;;;2.63;;
48034;SDS011;33812;46.480;6.834;2023-02-22T12:36:50;6.80;;;2.80;;
48034;SDS011;33812;46.480;6.834;2023-02-22T12:40:57;9.88;;;3.17;;
48034;SDS011;33812;46.480;6.834;2023-02-22T12:45:19;11.27;;;3.28;;
48034;SDS011;33812;46.480;6.834;2023-02-22T12:49:29;11.50;;;3.45;;
48034;SDS011;33812;46.480;6.834;2023-02-22T12:53:35;4.70;;;2.65;;
48034;SDS011;33812;46.480;6.834;2023-02-22T12:57:41;4.72;;;2.65;;
48034;SDS011;33812;46.480;6.834;2023-02-22T13:01:52;4.68;;;2.15;;
48034;SDS011;33812;46.480;6.834;2023-02-22T13:06:11;6.63;;;2.88;;
48034;SDS011;33812;46.480;6.834;2023-02-22T13:10:34;4.80;;;2.65;;
48034;SDS011;33812;46.480;6.834;2023-02-22T13:14:46;4.32;;;2.65;;
48034;SDS011;33812;46.480;6.834;2023-02-22T13:23:17;4.47;;;2.47;;
48034;SDS011;33812;46.480;6.834;2023-02-22T13:27:29;6.32;;;2.70;;
48034;SDS011;33812;46.480;6.834;2023-02-22T13:31:41;3.92;;;2.58;;
48034;SDS011;33812;46.480;6.834;2023-02-22T13:36:00;5.60;;;2.67;;
48034;SDS011;33812;46.480;6.834;2023-02-22T13:40:17;3.75;;;2.35;;
48034;SDS011;33812;46.480;6.834;2023-02-22T13:44:45;8.95;;;3.28;;
48034;SDS011;33812;46.480;6.834;2023-02-22T13:49:19;6.60;;;3.10;;
48034;SDS011;33812;46.480;6.834;2023-02-22T13:53:40;10.55;;;3.30;;
48034;SDS011;33812;46.480;6.834;2023-02-22T13:57:50;16.40;;;4.80;;
48034;SDS011;33812;46.480;6.834;2023-02-22T14:02:25;6.63;;;3.25;;
48034;SDS011;33812;46.480;6.834;2023-02-22T14:06:44;4.22;;;2.50;;
48034;SDS011;33812;46.480;6.834;2023-02-22T14:10:49;6.57;;;3.17;;
48034;SDS011;33812;46.480;6.834;2023-02-22T14:23:34;4.22;;;2.80;;
48034;SDS011;33812;46.480;6.834;2023-02-22T14:31:55;8.18;;;3.78;;
48034;SDS011;33812;46.480;6.834;2023-02-22T14:36:03;20.00;;;5.47;;
48034;SDS011;33812;46.480;6.834;2023-02-22T14:40:06;9.13;;;4.45;;
48034;SDS011;33812;46.480;6.834;2023-02-22T14:44:20;12.93;;;4.05;;
48034;SDS011;33812;46.480;6.834;2023-02-22T14:48:29;11.98;;;4.22;;
48034;SDS011;33812;46.480;6.834;2023-02-22T14:52:38;11.57;;;4.72;;
48034;SDS011;33812;46.480;6.834;2023-02-22T14:56:41;11.50;;;4.53;;
48034;SDS011;33812;46.480;6.834;2023-02-22T15:00:50;12.07;;;4.28;;
48034;SDS011;33812;46.480;6.834;2023-02-22T15:04:55;10.55;;;4.25;;
48034;SDS011;33812;46.480;6.834;2023-02-22T15:09:04;6.97;;;3.47;;
48034;SDS011;33812;46.480;6.834;2023-02-22T15:13:13;7.18;;;3.80;;
48034;SDS011;33812;46.480;6.834;2023-02-22T15:17:19;8.38;;;3.67;;
48034;SDS011;33812;46.480;6.834;2023-02-22T15:21:25;7.03;;;3.83;;
48034;SDS011;33812;46.480;6.834;2023-02-22T15:25:30;14.30;;;4.20;;
48034;SDS011;33812;46.480;6.834;2023-02-22T15:29:34;5.85;;;3.33;;
48034;SDS011;33812;46.480;6.834;2023-02-22T15:33:39;5.15;;;2.95;;
48034;SDS011;33812;46.480;6.834;2023-02-22T15:37:41;7.63;;;3.42;;
48034;SDS011;33812;46.480;6.834;2023-02-22T15:41:44;9.45;;;3.70;;
48034;SDS011;33812;46.480;6.834;2023-02-22T15:45:46;10.35;;;3.65;;
48034;SDS011;33812;46.480;6.834;2023-02-22T15:54:20;10.55;;;3.88;;
48034;SDS011;33812;46.480;6.834;2023-02-22T15:58:24;9.90;;;3.65;;
48034;SDS011;33812;46.480;6.834;2023-02-22T16:02:29;6.05;;;3.38;;
48034;SDS011;33812;46.480;6.834;2023-02-22T16:06:35;13.63;;;3.65;;
48034;SDS011;33812;46.480;6.834;2023-02-22T16:10:40;10.05;;;3.72;;
48034;SDS011;33812;46.480;6.834;2023-02-22T16:14:49;15.93;;;4.00;;
48034;SDS011;33812;46.480;6.834;2023-02-22T16:19:14;13.82;;;4.00;;
48034;SDS011;33812;46.480;6.834;2023-02-22T16:23:43;8.30;;;3.78;;
48034;SDS011;33812;46.480;6.834;2023-02-22T16:27:48;12.85;;;4.03;;
48034;SDS011;33812;46.480;6.834;2023-02-22T16:31:54;7.53;;;4.05;;
48034;SDS011;33812;46.480;6.834;2023-02-22T16:39:59;28.65;;;5.35;;
48034;SDS011;33812;46.480;6.834;2023-02-22T16:44:01;24.30;;;5.75;;
48034;SDS011;33812;46.480;6.834;2023-02-22T16:48:10;18.33;;;5.03;;
48034;SDS011;33812;46.480;6.834;2023-02-22T16:52:15;23.48;;;4.72;;
48034;SDS011;33812;46.480;6.834;2023-02-22T16:56:19;15.45;;;5.35;;
48034;SDS011;33812;46.480;6.834;2023-02-22T17:00:26;13.45;;;4.38;;
48034;SDS011;33812;46.480;6.834;2023-02-22T17:08:40;12.70;;;4.93;;
48034;SDS011;33812;46.480;6.834;2023-02-22T17:12:45;17.98;;;3.70;;
48034;SDS011;33812;46.480;6.834;2023-02-22T17:16:49;8.18;;;3.78;;
48034;SDS011;33812;46.480;6.834;2023-02-22T17:20:55;6.97;;;3.70;;
48034;SDS011;33812;46.480;6.834;2023-02-22T17:25:04;8.90;;;4.18;;
48034;SDS011;33812;46.480;6.834;2023-02-22T17:29:20;15.38;;;4.45;;
48034;SDS011;33812;46.480;6.834;2023-02-22T17:33:22;21.77;;;4.15;;
48034;SDS011;33812;46.480;6.834;2023-02-22T17:37:25;12.25;;;4.38;;
48034;SDS011;33812;46.480;6.834;2023-02-22T17:41:27;10.23;;;4.55;;
48034;SDS011;33812;46.480;6.834;2023-02-22T17:45:33;16.65;;;4.72;;
48034;SDS011;33812;46.480;6.834;2023-02-22T17:49:40;21.52;;;4.82;;
48034;SDS011;33812;46.480;6.834;2023-02-22T17:53:55;47.72;;;10.20;;
48034;SDS011;33812;46.480;6.834;2023-02-22T17:58:01;50.30;;;12.40;;
48034;SDS011;33812;46.480;6.834;2023-02-22T18:02:13;44.97;;;10.52;;
48034;SDS011;33812;46.480;6.834;2023-02-22T18:06:17;35.78;;;10.15;;
48034;SDS011;33812;46.480;6.834;2023-02-22T18:10:34;38.63;;;9.30;;
48034;SDS011;33812;46.480;6.834;2023-02-22T18:14:48;36.45;;;9.93;;
48034;SDS011;33812;46.480;6.834;2023-02-22T18:18:53;43.50;;;10.68;;
48034;SDS011;33812;46.480;6.834;2023-02-22T18:22:58;36.75;;;9.27;;
48034;SDS011;33812;46.480;6.834;2023-02-22T18:27:00;29.57;;;8.90;;
48034;SDS011;33812;46.480;6.834;2023-02-22T18:35:09;29.55;;;9.15;;
48034;SDS011;33812;46.480;6.834;2023-02-22T18:39:18;35.53;;;8.55;;
48034;SDS011;33812;46.480;6.834;2023-02-22T18:43:20;28.95;;;8.68;;
48034;SDS011;33812;46.480;6.834;2023-02-22T18:47:24;27.13;;;8.35;;
48034;SDS011;33812;46.480;6.834;2023-02-22T18:51:28;27.63;;;8.45;;
48034;SDS011;33812;46.480;6.834;2023-02-22T18:55:30;32.10;;;8.85;;
48034;SDS011;33812;46.480;6.834;2023-02-22T18:59:37;27.15;;;7.80;;
48034;SDS011;33812;46.480;6.834;2023-02-22T19:03:39;23.33;;;8.07;;
48034;SDS011;33812;46.480;6.834;2023-02-22T19:07:42;25.50;;;7.03;;
48034;SDS011;33812;46.480;6.834;2023-02-22T19:11:44;36.90;;;9.73;;
48034;SDS011;33812;46.480;6.834;2023-02-22T19:15:47;26.63;;;7.80;;
48034;SDS011;33812;46.480;6.834;2023-02-22T19:19:49;15.98;;;7.15;;
48034;SDS011;33812;46.480;6.834;2023-02-22T19:23:52;16.60;;;6.45;;
48034;SDS011;33812;46.480;6.834;2023-02-22T19:27:55;17.58;;;6.90;;
48034;SDS011;33812;46.480;6.834;2023-02-22T19:32:00;18.40;;;6.75;;
48034;SDS011;33812;46.480;6.834;2023-02-22T19:36:02;18.38;;;6.18;;
48034;SDS011;33812;46.480;6.834;2023-02-22T19:40:06;17.58;;;6.05;;
48034;SDS011;33812;46.480;6.834;2023-02-22T19:44:09;15.98;;;6.25;;
48034;SDS011;33812;46.480;6.834;2023-02-22T19:48:14;18.17;;;6.28;;
48034;SDS011;33812;46.480;6.834;2023-02-22T19:52:18;13.50;;;5.53;;
48034;SDS011;33812;46.480;6.834;2023-02-22T19:56:23;16.50;;;5.63;;
48034;SDS011;33812;46.480;6.834;2023-02-22T20:00:26;18.98;;;6.55;;
48034;SDS011;33812;46.480;6.834;2023-02-22T20:04:36;18.50;;;5.47;;
48034;SDS011;33812;46.480;6.834;2023-02-22T20:08:38;11.85;;;5.20;;
48034;SDS011;33812;46.480;6.834;2023-02-22T20:12:42;13.15;;;5.45;;
48034;SDS011;33812;46.480;6.834;2023-02-22T20:16:44;11.38;;;5.13;;
48034;SDS011;33812;46.480;6.834;2023-02-22T20:20:46;15.05;;;6.20;;
48034;SDS011;33812;46.480;6.834;2023-02-22T20:24:48;13.60;;;5.85;;
48034;SDS011;33812;46.480;6.834;2023-02-22T20:28:52;15.30;;;5.25;;
48034;SDS011;33812;46.480;6.834;2023-02-22T20:32:55;13.52;;;5.60;;
48034;SDS011;33812;46.480;6.834;2023-02-22T20:36:57;14.95;;;6.05;;
48034;SDS011;33812;46.480;6.834;2023-02-22T20:40:59;15.20;;;5.95;;
48034;SDS011;33812;46.480;6.834;2023-02-22T20:45:03;12.02;;;5.15;;
48034;SDS011;33812;46.480;6.834;2023-02-22T20:49:07;9.07;;;4.72;;
48034;SDS011;33812;46.480;6.834;2023-02-22T20:53:11;17.30;;;5.43;;
48034;SDS011;33812;46.480;6.834;2023-02-22T20:57:13;8.35;;;4.95;;
48034;SDS011;33812;46.480;6.834;2023-02-22T21:01:17;14.00;;;4.72;;
48034;SDS011;33812;46.480;6.834;2023-02-22T21:05:33;12.25;;;5.00;;
48034;SDS011;33812;46.480;6.834;2023-02-22T21:09:35;10.68;;;4.35;;
48034;SDS011;33812;46.480;6.834;2023-02-22T21:13:42;6.55;;;3.78;;
48034;SDS011;33812;46.480;6.834;2023-02-22T21:17:53;8.90;;;4.35;;
48034;SDS011;33812;46.480;6.834;2023-02-22T21:21:56;16.73;;;5.68;;
48034;SDS011;33812;46.480;6.834;2023-02-22T21:26:00;11.63;;;4.87;;
48034;SDS011;33812;46.480;6.834;2023-02-22T21:30:02;21.13;;;6.35;;
48034;SDS011;33812;46.480;6.834;2023-02-22T21:34:05;20.65;;;6.13;;
48034;SDS011;33812;46.480;6.834;2023-02-22T21:38:07;10.88;;;5.10;;
48034;SDS011;33812;46.480;6.834;2023-02-22T21:46:29;9.38;;;4.10;;
48034;SDS011;33812;46.480;6.834;2023-02-22T21:50:37;7.80;;;4.47;;
48034;SDS011;33812;46.480;6.834;2023-02-22T21:54:39;8.55;;;4.30;;
48034;SDS011;33812;46.480;6.834;2023-02-22T21:58:44;11.65;;;4.82;;
48034;SDS011;33812;46.480;6.834;2023-02-22T22:02:47;11.23;;;5.00;;
48034;SDS011;33812;46.480;6.834;2023-02-22T22:06:51;8.48;;;4.30;;
48034;SDS011;33812;46.480;6.834;2023-02-22T22:10:55;9.65;;;4.15;;
48034;SDS011;33812;46.480;6.834;2023-02-22T22:14:57;8.05;;;4.30;;
48034;SDS011;33812;46.480;6.834;2023-02-22T22:19:01;10.55;;;4.82;;
48034;SDS011;33812;46.480;6.834;2023-02-22T22:23:04;7.65;;;4.57;;
48034;SDS011;33812;46.480;6.834;2023-02-22T22:27:08;10.27;;;4.82;;
48034;SDS011;33812;46.480;6.834;2023-02-22T22:31:12;17.40;;;4.97;;
48034;SDS011;33812;46.480;6.834;2023-02-22T22:35:17;12.65;;;4.80;;
48034;SDS011;33812;46.480;6.834;2023-02-22T22:39:19;15.73;;;5.30;;
48034;SDS011;33812;46.480;6.834;2023-02-22T22:43:21;8.55;;;4.50;;
48034;SDS011;33812;46.480;6.834;2023-02-22T22:47:23;9.63;;;4.78;;
48034;SDS011;33812;46.480;6.834;2023-02-22T22:51:27;16.60;;;5.85;;
48034;SDS011;33812;46.480;6.834;2023-02-22T22:55:28;11.73;;;4.85;;
48034;SDS011;33812;46.480;6.834;2023-02-22T22:59:30;9.93;;;4.50;;
48034;SDS011;33812;46.480;6.834;2023-02-22T23:03:33;10.90;;;4.78;;
48034;SDS011;33812;46.480;6.834;2023-02-22T23:07:37;13.05;;;4.78;;
48034;SDS011;33812;46.480;6.834;2023-02-22T23:11:40;17.55;;;5.63;;
48034;SDS011;33812;46.480;6.834;2023-02-22T23:15:44;8.48;;;4.13;;
48034;SDS011;33812;46.480;6.834;2023-02-22T23:19:47;15.35;;;5.30;;
48034;SDS011;33812;46.480;6.834;2023-02-22T23:23:54;10.18;;;4.63;;
48034;SDS011;33812;46.480;6.834;2023-02-22T23:28:05;10.82;;;4.45;;
48034;SDS011;33812;46.480;6.834;2023-02-22T23:32:18;11.52;;;4.97;;
48034;SDS011;33812;46.480;6.834;2023-02-22T23:36:21;10.65;;;4.63;;
48034;SDS011;33812;46.480;6.834;2023-02-22T23:40:25;11.38;;;4.60;;
48034;SDS011;33812;46.480;6.834;2023-02-22T23:44:28;14.75;;;4.93;;
48034;SDS011;33812;46.480;6.834;2023-02-22T23:48:30;11.30;;;4.75;;
48034;SDS011;33812;46.480;6.834;2023-02-22T23:52:32;14.27;;;5.13;;
48034;SDS011;33812;46.480;6.834;2023-02-22T23:56:41;8.85;;;4.28;;
